Port Sulphur, Louisiana
Current Conditions -  °F | °C
As of 2:51 PM on Friday 19 Dec 2014 (Local Time) from KBVE Reporting Station
Moderate Rain Moderate Rain  
Wind Chill: 61°   Ceiling: 1600
Heat Index: 61°   Visibility: 1.2mi
Dew Point: 60°   Wind: 3mph
Humidity: 97%   Direction: 310°NW
Pressure: 30.03"   Gusts: NA
Location:  29.49°N, 89.71°W
Report Text: KBVE 192051Z AUTO 31003KT 1 1/4SM RA BR FEW011 BKN016 OVC037 16/16 A3003 RMK AO2 SLP168 P0013 60027 T01610156 56017
Loading
Personal Weather Stations






























Interactive Weather Map New forecast layout! Learn more

10-Day Weather Forecast

Advertisements
Track Severe Weather on mobile